Orbital elements of BADR-4
| Launched | 7 November 2006 |
| Flight ended | – |
| Launch site | Tyuratam Missile and Space Center, Kazakhstan (Also known as Baikonur Cosmodrome) |
| Owner | Arab Satellite Communications Organization |
| NORAD ID | 29526 |
| Alternative names |
ARABSAT-4B |
| Date fetched |
Epoch osculation |
Inc. [°] |
Ecc. | RA asc node [hr] |
Arg Peri. [°] |
Mean anom [°] |
Mean motion [rev/day] |
Abs. mag |
| Date fetched |
Epoch osculation |
Inc. [°] |
Ecc. | RA asc node [hr] |
Arg Peri. [°] |
Mean anom [°] |
Mean motion [rev/day] |
Abs. mag |
| 2026 May 06 17:57 | 2026 May 06 06:25:11 | 1.8969 | 0.00059 | 5.4362 | 312.7611 | 312.5383 | 1.00277 | – |
| 2026 May 05 17:57 | 2026 May 05 11:35:47 | 1.8951 | 0.00059 | 5.4367 | 311.9015 | 312.5383 | 1.00277 | – |
| 2026 May 04 17:57 | 2026 May 04 06:30:20 | 1.8923 | 0.00059 | 5.4376 | 310.4970 | 312.5383 | 1.00277 | – |
| 2026 May 03 17:57 | 2026 May 03 11:41:01 | 1.8904 | 0.00060 | 5.4381 | 309.5343 | 312.5383 | 1.00277 | – |
| 2026 May 02 17:57 | 2026 May 02 06:35:21 | 1.8876 | 0.00060 | 5.4390 | 307.9693 | 312.5383 | 1.00277 | – |
| 2026 May 01 17:56 | 2026 May 01 11:46:04 | 1.8857 | 0.00060 | 5.4394 | 306.9383 | 312.5383 | 1.00277 | – |
| 2026 Apr 30 17:56 | 2026 Apr 30 04:57:55 | 1.8827 | 0.00060 | 5.4403 | 305.0957 | 312.5383 | 1.00277 | – |
| 2026 Apr 29 17:57 | 2026 Apr 29 11:51:13 | 1.8810 | 0.00060 | 5.4407 | 304.1056 | 312.5383 | 1.00277 | – |
| 2026 Apr 28 17:56 | 2026 Apr 28 11:53:46 | 1.8785 | 0.00060 | 5.4413 | 302.6118 | 312.5383 | 1.00277 | – |
| 2026 Apr 27 17:58 | 2026 Apr 27 05:04:38 | 1.8753 | 0.00059 | 5.4422 | 300.6791 | 312.5383 | 1.00277 | – |
| 2026 Apr 26 17:58 | 2026 Apr 25 23:11:19 | 1.8720 | 0.00059 | 5.4428 | 298.7952 | 312.5383 | 1.00277 | – |
| 2026 Apr 25 17:58 | 2026 Apr 25 12:01:31 | 1.8708 | 0.00060 | 5.4431 | 298.0569 | 312.5383 | 1.00277 | – |
| 2026 Apr 24 17:59 | 2026 Apr 24 05:13:19 | 1.8672 | 0.00059 | 5.4439 | 296.3341 | 312.5383 | 1.00277 | – |
| 2026 Apr 23 17:57 | 2026 Apr 23 04:32:38 | 1.8643 | 0.00059 | 5.4445 | 294.9135 | 312.5383 | 1.00277 | – |
| 2026 Apr 22 17:57 | 2026 Apr 22 04:47:38 | 1.8615 | 0.00059 | 5.4452 | 293.7294 | 312.5383 | 1.00277 | – |
| 2026 Apr 21 17:57 | 2026 Apr 21 12:11:42 | 1.8595 | 0.00059 | 5.4457 | 292.9027 | 312.5383 | 1.00277 | – |
| 2026 Apr 20 17:57 | 2026 Apr 20 12:14:17 | 1.8566 | 0.00060 | 5.4465 | 291.9758 | 312.5383 | 1.00277 | – |
| 2026 Apr 19 17:58 | 2026 Apr 19 12:16:51 | 1.8538 | 0.00060 | 5.4472 | 291.2831 | 312.5383 | 1.00277 | – |
| 2026 Apr 18 17:56 | 2026 Apr 18 05:28:40 | 1.8499 | 0.00060 | 5.4481 | 290.5291 | 312.5383 | 1.00277 | – |
| 2026 Apr 16 17:57 | 2026 Apr 16 00:29:21 | 1.8437 | 0.00067 | 5.4500 | 294.9080 | 312.5383 | 1.00277 | – |
| 2026 Apr 14 17:57 | 2026 Apr 14 07:21:33 | 1.8390 | 0.00067 | 5.4515 | 294.1071 | 312.5383 | 1.00277 | – |
| 2026 Apr 13 17:57 | 2026 Apr 13 04:00:38 | 1.8360 | 0.00068 | 5.4525 | 293.4949 | 312.5383 | 1.00277 | – |
| 2026 Apr 12 17:57 | 2026 Apr 12 07:26:43 | 1.8338 | 0.00068 | 5.4533 | 293.0833 | 312.5383 | 1.00277 | – |
| 2026 Apr 11 17:57 | 2026 Apr 11 07:29:11 | 1.8313 | 0.00068 | 5.4541 | 292.4870 | 312.5383 | 1.00277 | – |
| 2026 Apr 10 17:58 | 2026 Apr 10 05:49:07 | 1.8287 | 0.00069 | 5.4549 | 291.7684 | 312.5383 | 1.00277 | – |
| 2026 Apr 09 18:01 | 2026 Apr 09 05:51:38 | 1.8263 | 0.00069 | 5.4557 | 290.9497 | 312.5383 | 1.00277 | – |